Time;durP1;ratioP1;P1;durP2;ratioP2;P2;SDS_P1;SDS_P2;PMS_P1;PMS_P2;Temp;Humidity;BMP_temperature;BMP_pressure;BME280_temperature;BME280_humidity;BME280_pressure;Samples;Min_cycle;Max_cycle;Signal;HPM_P1;HPM_P2
2021/12/18 00:01:27;;;;;;;8.50;2.58;;;6.80;99.90;;;;;;5059354;28;20032;-67
2021/12/18 00:03:53;;;;;;;11.57;2.42;;;6.80;99.90;;;;;;5056098;28;20052;-67
2021/12/18 00:06:19;;;;;;;15.07;3.00;;;6.70;99.90;;;;;;5052597;28;20110;-66
2021/12/18 00:08:45;;;;;;;10.07;2.50;;;6.80;99.90;;;;;;5052431;28;20036;-67
2021/12/18 00:11:11;;;;;;;9.20;2.80;;;6.80;99.90;;;;;;5064141;28;20056;-67
2021/12/18 00:13:37;;;;;;;13.52;3.00;;;6.80;99.90;;;;;;5069557;28;20048;-67
2021/12/18 00:16:04;;;;;;;12.98;2.63;;;6.80;99.90;;;;;;5050943;28;20049;-67
2021/12/18 00:18:31;;;;;;;13.68;2.85;;;6.80;99.90;;;;;;5055258;28;20417;-67
2021/12/18 00:21:00;;;;;;;18.00;2.80;;;6.70;99.90;;;;;;5056951;28;20084;-67
2021/12/18 00:23:26;;;;;;;14.32;2.75;;;6.80;99.90;;;;;;5055904;28;20049;-67
2021/12/18 00:25:52;;;;;;;13.02;2.97;;;6.80;99.90;;;;;;5068844;28;20063;-67
2021/12/18 00:28:18;;;;;;;13.85;2.90;;;6.70;99.90;;;;;;5057102;28;20106;-65
2021/12/18 00:30:43;;;;;;;14.65;2.60;;;6.70;99.90;;;;;;5060228;28;20041;-67
2021/12/18 00:33:10;;;;;;;19.02;3.03;;;6.70;99.90;;;;;;5062085;28;20037;-66
2021/12/18 00:35:36;;;;;;;11.07;2.65;;;6.70;99.90;;;;;;5052338;28;20037;-65
2021/12/18 00:38:04;;;;;;;8.90;2.58;;;6.60;99.90;;;;;;5060461;28;20041;-66
2021/12/18 00:40:42;;;;;;;10.60;2.72;;;6.60;99.90;;;;;;5068397;28;20048;-67
2021/12/18 00:43:22;;;;;;;10.60;2.70;;;6.60;99.90;;;;;;5053279;28;20115;-66
2021/12/18 00:45:47;;;;;;;7.57;2.30;;;6.60;99.90;;;;;;5061789;28;20295;-67
2021/12/18 00:48:13;;;;;;;12.57;2.30;;;6.60;99.90;;;;;;5051367;28;20041;-66
2021/12/18 00:50:39;;;;;;;18.38;2.60;;;6.60;99.90;;;;;;5053342;28;20379;-66
2021/12/18 00:53:05;;;;;;;12.63;2.85;;;6.60;99.90;;;;;;5067386;28;20044;-66
2021/12/18 00:55:30;;;;;;;10.35;2.95;;;6.60;99.90;;;;;;5065273;28;20389;-68
2021/12/18 00:57:56;;;;;;;9.57;2.17;;;6.50;99.90;;;;;;5064004;28;20044;-66
2021/12/18 01:00:24;;;;;;;9.98;2.60;;;6.60;99.90;;;;;;5057732;28;20110;-67
2021/12/18 01:02:58;;;;;;;16.58;2.60;;;6.50;99.90;;;;;;5054971;28;20053;-67
2021/12/18 01:05:24;;;;;;;15.73;2.15;;;6.50;99.90;;;;;;5052644;28;20064;-65
2021/12/18 01:07:51;;;;;;;15.75;2.08;;;6.50;99.90;;;;;;5066552;28;20067;-67
2021/12/18 01:12:47;;;;;;;;;;;6.50;99.90;;;;;;5051809;28;20407;-67
2021/12/18 01:15:19;;;;;;;16.08;2.28;;;6.50;99.90;;;;;;5054413;28;19982;-67
2021/12/18 01:23:15;;;;;;;14.50;2.50;;;6.50;99.90;;;;;;5061192;28;20037;-66
2021/12/18 01:25:41;;;;;;;13.50;2.05;;;6.50;99.90;;;;;;5070089;28;20418;-67
2021/12/18 01:28:07;;;;;;;11.45;2.20;;;6.10;99.90;;;;;;5051818;28;20037;-66
2021/12/18 01:30:33;;;;;;;8.25;2.05;;;6.50;99.90;;;;;;5062400;28;20051;-66
2021/12/18 01:32:58;;;;;;;10.65;2.33;;;6.40;99.90;;;;;;5061748;28;20094;-67
2021/12/18 01:35:24;;;;;;;12.65;2.35;;;6.40;99.90;;;;;;5072123;28;20422;-66
2021/12/18 01:37:50;;;;;;;7.38;2.28;;;6.40;99.90;;;;;;5054618;28;20080;-66
2021/12/18 01:40:18;;;;;;;7.95;2.38;;;6.40;99.90;;;;;;5037423;28;20080;-66
2021/12/18 01:45:39;;;;;;;6.53;2.28;;;6.40;99.90;;;;;;5069253;28;20459;-67
2021/12/18 01:53:34;;;;;;;8.68;2.33;;;6.40;99.90;;;;;;5050550;28;20055;-66
2021/12/18 01:55:59;;;;;;;17.55;2.40;;;6.40;99.90;;;;;;5058975;28;20378;-66
2021/12/18 01:58:25;;;;;;;13.82;2.33;;;6.40;99.90;;;;;;5051836;28;20041;-66
2021/12/18 02:00:54;;;;;;;17.10;2.50;;;6.40;99.90;;;;;;5062447;28;20549;-66
2021/12/18 02:03:20;;;;;;;15.75;3.03;;;6.40;99.90;;;;;;5059055;28;20048;-65
2021/12/18 02:05:50;;;;;;;19.52;3.78;;;6.40;99.90;;;;;;5057916;28;20064;-67
2021/12/18 02:08:24;;;;;;;15.90;2.83;;;6.40;99.90;;;;;;5056289;28;20036;-67
2021/12/18 02:10:57;;;;;;;14.30;2.90;;;6.40;99.90;;;;;;5058621;28;20028;-67
2021/12/18 02:13:36;;;;;;;9.98;3.22;;;6.50;99.90;;;;;;5061156;28;20080;-68
2021/12/18 02:21:32;;;;;;;9.75;3.10;;;6.50;99.90;;;;;;5056627;28;20494;-66
2021/12/18 02:23:58;;;;;;;8.77;3.17;;;6.40;99.90;;;;;;5051724;28;20052;-66
2021/12/18 02:26:24;;;;;;;11.85;2.75;;;6.40;99.90;;;;;;5058854;28;20071;-66
2021/12/18 02:28:52;;;;;;;13.10;2.90;;;6.40;99.90;;;;;;5066052;28;20383;-67
2021/12/18 02:31:18;;;;;;;11.50;3.08;;;6.40;99.90;;;;;;5069048;28;20048;-67
2021/12/18 02:33:45;;;;;;;8.48;2.40;;;6.40;99.90;;;;;;5069643;28;20456;-67
2021/12/18 02:36:19;;;;;;;10.38;2.53;;;6.40;99.90;;;;;;5051624;28;20033;-67
2021/12/18 02:43:54;;;;;;;9.95;2.80;;;6.40;99.90;;;;;;5053136;28;20053;-66
2021/12/18 02:46:20;;;;;;;11.13;2.33;;;6.40;99.90;;;;;;5059636;28;20049;-67
2021/12/18 02:48:48;;;;;;;10.55;2.42;;;6.40;99.90;;;;;;5056221;28;20033;-67
2021/12/18 02:51:15;;;;;;;6.65;2.47;;;6.40;99.90;;;;;;5059356;28;21835;-67
2021/12/18 02:53:43;;;;;;;7.70;2.15;;;6.40;99.90;;;;;;5075774;28;20044;-67
2021/12/18 02:56:10;;;;;;;5.03;1.55;;;6.40;99.90;;;;;;5061729;28;20134;-67
2021/12/18 02:58:37;;;;;;;8.45;1.85;;;6.40;99.90;;;;;;5058055;28;20089;-66
2021/12/18 03:01:04;;;;;;;6.85;2.00;;;6.40;99.90;;;;;;5062124;28;20037;-67
2021/12/18 03:03:33;;;;;;;7.65;1.75;;;6.40;99.90;;;;;;5055098;28;20487;-67
2021/12/18 03:27:18;;;;;;;8.43;2.05;;;6.40;99.90;;;;;;5061282;28;20045;-67
2021/12/18 03:29:43;;;;;;;4.70;1.85;;;6.50;99.90;;;;;;5053814;28;20066;-68
2021/12/18 03:32:09;;;;;;;6.88;2.20;;;6.50;99.90;;;;;;5060040;28;20043;-66
2021/12/18 03:34:35;;;;;;;6.47;2.42;;;6.50;99.90;;;;;;5064576;28;20135;-66
2021/12/18 03:37:02;;;;;;;5.53;1.90;;;6.50;99.90;;;;;;5061591;28;20127;-66
2021/12/18 03:39:27;;;;;;;6.35;2.00;;;6.60;99.90;;;;;;5055766;28;20059;-66
2021/12/18 03:41:53;;;;;;;4.75;1.88;;;6.60;99.90;;;;;;5059682;28;20032;-66
2021/12/18 03:44:19;;;;;;;6.50;2.17;;;6.60;99.90;;;;;;5053286;28;20356;-66
2021/12/18 03:46:45;;;;;;;9.02;2.22;;;6.60;99.90;;;;;;5066415;28;20050;-67
2021/12/18 03:49:11;;;;;;;7.95;2.30;;;6.60;99.90;;;;;;5065661;28;20123;-67
2021/12/18 03:51:37;;;;;;;5.78;2.13;;;6.60;99.90;;;;;;5055657;28;20328;-67
2021/12/18 03:54:03;;;;;;;8.88;2.55;;;6.60;99.90;;;;;;5053493;28;20099;-67
2021/12/18 03:56:29;;;;;;;7.22;2.30;;;6.70;99.90;;;;;;5070172;28;20035;-67
2021/12/18 03:58:54;;;;;;;6.40;2.25;;;6.60;99.90;;;;;;5070682;28;20502;-67
2021/12/18 04:01:20;;;;;;;9.18;2.28;;;6.70;99.90;;;;;;5061018;28;20029;-66
2021/12/18 04:03:46;;;;;;;7.72;2.35;;;6.70;99.90;;;;;;5062245;28;20044;-66
2021/12/18 04:06:11;;;;;;;9.45;2.45;;;6.60;99.90;;;;;;5061301;28;20037;-66
2021/12/18 04:08:37;;;;;;;10.85;3.33;;;6.70;99.90;;;;;;5062060;28;20045;-67
2021/12/18 04:11:03;;;;;;;7.40;3.08;;;6.70;99.90;;;;;;5053510;28;20048;-66
2021/12/18 04:13:30;;;;;;;7.95;3.08;;;6.70;99.90;;;;;;5051580;28;20098;-66
2021/12/18 04:15:56;;;;;;;9.00;2.80;;;6.70;99.90;;;;;;5052555;28;20128;-66
2021/12/18 04:18:22;;;;;;;9.55;2.97;;;6.70;99.90;;;;;;5054958;28;20124;-67
2021/12/18 04:20:48;;;;;;;12.38;3.42;;;6.80;99.90;;;;;;5057221;28;20056;-67
2021/12/18 04:23:14;;;;;;;7.93;2.80;;;6.80;99.90;;;;;;5050872;28;20148;-67
2021/12/18 04:25:40;;;;;;;7.40;2.90;;;6.80;99.90;;;;;;5064497;28;20119;-67
2021/12/18 04:28:06;;;;;;;10.18;3.13;;;6.80;99.90;;;;;;5067196;28;20036;-66
2021/12/18 04:30:31;;;;;;;9.32;3.30;;;6.80;99.90;;;;;;5061911;28;20047;-66
2021/12/18 04:32:57;;;;;;;11.40;3.95;;;6.80;99.90;;;;;;5064734;28;20041;-66
2021/12/18 04:35:23;;;;;;;11.45;4.53;;;6.80;99.90;;;;;;5053738;28;20037;-67
2021/12/18 04:37:48;;;;;;;10.38;3.70;;;6.80;99.90;;;;;;5055347;28;20395;-67
2021/12/18 04:40:14;;;;;;;11.77;4.28;;;6.90;99.90;;;;;;5052419;28;20072;-67
2021/12/18 04:42:39;;;;;;;16.83;4.43;;;6.90;99.90;;;;;;5052822;28;20555;-66
2021/12/18 04:45:06;;;;;;;13.05;3.60;;;6.90;99.90;;;;;;5052889;28;20051;-67
2021/12/18 04:47:32;;;;;;;9.48;3.92;;;6.90;99.90;;;;;;5058773;28;20040;-67
2021/12/18 04:49:58;;;;;;;9.77;3.72;;;6.90;99.90;;;;;;5060323;28;20533;-66
2021/12/18 04:52:24;;;;;;;13.27;4.18;;;6.90;99.90;;;;;;5068815;28;20040;-67
2021/12/18 04:54:50;;;;;;;14.27;4.50;;;7.00;99.90;;;;;;5050658;28;20431;-66
2021/12/18 04:57:16;;;;;;;13.88;4.43;;;7.00;99.90;;;;;;5056317;28;20123;-67
2021/12/18 04:59:44;;;;;;;15.00;4.80;;;6.90;99.90;;;;;;5063228;28;20094;-66
2021/12/18 05:02:13;;;;;;;13.13;4.10;;;7.00;99.90;;;;;;5055425;28;20561;-67
2021/12/18 05:04:38;;;;;;;13.57;4.35;;;7.00;99.90;;;;;;5056190;28;20294;-66
2021/12/18 05:07:04;;;;;;;16.92;4.38;;;7.00;99.90;;;;;;5067783;28;20032;-67
2021/12/18 05:09:30;;;;;;;13.50;4.50;;;7.00;99.90;;;;;;5068366;28;20477;-67
2021/12/18 05:12:03;;;;;;;14.30;4.57;;;7.00;99.90;;;;;;5125280;27;20463;-66
2021/12/18 05:14:28;;;;;;;15.73;4.93;;;7.00;99.90;;;;;;5110276;28;20039;-67
2021/12/18 05:16:54;;;;;;;17.35;5.05;;;7.00;99.90;;;;;;5129334;28;20051;-67
2021/12/18 05:19:20;;;;;;;18.65;5.30;;;7.10;99.90;;;;;;5117228;28;20069;-66
2021/12/18 05:21:46;;;;;;;19.50;5.40;;;7.10;99.90;;;;;;5122428;28;20137;-67
2021/12/18 05:24:12;;;;;;;20.15;5.70;;;7.20;99.90;;;;;;5123598;27;20039;-67
2021/12/18 05:26:37;;;;;;;17.90;5.20;;;7.20;99.90;;;;;;5128968;28;20102;-67
2021/12/18 05:29:03;;;;;;;16.75;5.15;;;7.20;99.90;;;;;;5123472;28;20042;-67
2021/12/18 05:31:29;;;;;;;25.27;6.28;;;7.30;99.90;;;;;;5116979;28;20076;-67
2021/12/18 05:33:57;;;;;;;19.02;5.72;;;7.30;99.90;;;;;;5127891;28;20054;-65
2021/12/18 05:36:35;;;;;;;;;;;7.30;99.90;;;;;;5129204;28;20114;-67
2021/12/18 05:39:07;;;;;;;18.73;5.72;;;7.40;99.90;;;;;;5125992;28;20032;-66
2021/12/18 05:41:34;;;;;;;23.08;6.30;;;7.40;99.90;;;;;;5127731;28;20097;-66
2021/12/18 05:43:59;;;;;;;20.85;5.85;;;7.40;99.90;;;;;;5102728;28;20477;-66
2021/12/18 05:46:25;;;;;;;18.42;5.97;;;7.40;99.90;;;;;;5119666;28;20103;-66
2021/12/18 05:48:51;;;;;;;21.52;5.85;;;7.40;99.90;;;;;;5115133;27;20040;-66
2021/12/18 05:51:17;;;;;;;21.05;5.95;;;7.40;99.90;;;;;;5117749;28;20047;-66
2021/12/18 05:53:43;;;;;;;21.80;6.00;;;7.40;99.90;;;;;;5120320;28;20469;-67
2021/12/18 05:56:09;;;;;;;23.27;6.25;;;7.50;99.90;;;;;;5126655;28;20035;-66
2021/12/18 05:58:35;;;;;;;22.25;5.50;;;7.50;99.90;;;;;;5109594;28;20058;-67
2021/12/18 06:01:01;;;;;;;23.48;5.60;;;7.50;99.90;;;;;;5126880;27;20027;-66
2021/12/18 06:03:26;;;;;;;26.50;6.40;;;7.50;99.90;;;;;;5115963;28;20517;-68
2021/12/18 06:05:52;;;;;;;21.85;6.43;;;7.50;99.90;;;;;;5125572;28;20035;-66
2021/12/18 06:08:17;;;;;;;25.33;6.22;;;7.50;99.90;;;;;;5124720;28;20034;-66
2021/12/18 06:10:43;;;;;;;24.55;6.07;;;7.50;99.90;;;;;;5101959;28;20055;-66
2021/12/18 06:13:09;;;;;;;22.42;5.65;;;7.50;99.90;;;;;;5118363;28;20097;-66
2021/12/18 06:15:35;;;;;;;28.92;7.20;;;7.60;99.90;;;;;;5113353;28;20032;-66
2021/12/18 06:18:00;;;;;;;22.38;6.53;;;7.60;99.90;;;;;;5117432;28;20043;-67
2021/12/18 06:20:28;;;;;;;21.95;6.88;;;7.60;99.90;;;;;;5110618;28;20046;-66
2021/12/18 06:22:54;;;;;;;20.33;6.45;;;7.70;99.90;;;;;;5110120;28;20046;-67
2021/12/18 06:25:20;;;;;;;23.88;6.15;;;7.70;99.90;;;;;;5108457;28;20070;-67
2021/12/18 06:27:46;;;;;;;28.60;6.85;;;7.70;99.90;;;;;;5099392;28;20582;-67
2021/12/18 06:30:12;;;;;;;25.80;6.13;;;7.70;99.90;;;;;;5103303;28;20044;-65
2021/12/18 06:32:39;;;;;;;16.75;5.72;;;7.70;99.90;;;;;;5084899;27;20051;-68
2021/12/18 06:35:08;;;;;;;19.05;6.20;;;7.70;99.90;;;;;;5109873;28;20075;-65
2021/12/18 06:37:34;;;;;;;25.50;6.43;;;7.70;99.90;;;;;;5108290;28;20073;-66
2021/12/18 06:40:00;;;;;;;24.25;6.07;;;7.70;99.90;;;;;;5101304;28;20525;-66
2021/12/18 06:42:26;;;;;;;20.23;6.28;;;7.90;99.90;;;;;;5098153;28;20043;-67
2021/12/18 06:44:51;;;;;;;19.27;5.35;;;7.80;99.90;;;;;;5106160;28;20079;-67
2021/12/18 06:47:17;;;;;;;14.65;5.85;;;7.80;99.90;;;;;;5104356;28;20063;-66
2021/12/18 06:49:42;;;;;;;15.25;4.65;;;7.80;99.90;;;;;;5123897;27;20044;-67
2021/12/18 06:52:08;;;;;;;16.42;4.80;;;7.80;99.90;;;;;;5102107;28;20047;-66
2021/12/18 06:54:34;;;;;;;13.52;4.45;;;7.80;99.90;;;;;;5112800;27;20493;-67
2021/12/18 06:57:01;;;;;;;12.48;4.05;;;7.90;99.90;;;;;;5106480;28;20085;-66
2021/12/18 06:59:28;;;;;;;13.55;3.92;;;7.80;99.90;;;;;;5101551;28;20489;-66
2021/12/18 07:01:54;;;;;;;11.82;3.55;;;7.80;99.90;;;;;;5106578;28;20048;-66
2021/12/18 07:04:20;;;;;;;11.88;3.60;;;7.90;99.90;;;;;;5094962;28;20036;-65
2021/12/18 07:06:46;;;;;;;7.13;3.00;;;7.90;99.90;;;;;;5084034;28;20153;-65
2021/12/18 07:09:11;;;;;;;14.98;3.53;;;8.00;99.90;;;;;;5103462;27;20065;-66
2021/12/18 07:11:38;;;;;;;11.27;3.35;;;8.00;99.90;;;;;;5094946;28;20040;-66
2021/12/18 07:14:03;;;;;;;12.98;3.72;;;8.00;99.90;;;;;;5105949;27;20070;-66
2021/12/18 07:16:29;;;;;;;9.32;3.35;;;8.00;99.90;;;;;;5100746;28;20485;-66
2021/12/18 07:18:55;;;;;;;14.52;4.15;;;7.90;99.90;;;;;;5107041;28;20050;-66
2021/12/18 07:21:21;;;;;;;15.13;3.83;;;8.00;99.90;;;;;;5109109;28;20500;-67
2021/12/18 07:23:47;;;;;;;9.15;3.67;;;8.00;99.90;;;;;;5087355;28;20124;-67
2021/12/18 07:26:12;;;;;;;18.63;4.45;;;8.00;99.90;;;;;;5106555;28;20077;-65
2021/12/18 07:28:39;;;;;;;12.23;3.75;;;8.00;99.90;;;;;;5106156;28;20042;-66
2021/12/18 07:31:04;;;;;;;14.40;3.75;;;8.00;99.90;;;;;;5110670;28;20035;-67
2021/12/18 07:33:30;;;;;;;17.08;4.03;;;8.00;99.90;;;;;;5107658;28;20173;-66
2021/12/18 07:35:56;;;;;;;14.30;3.47;;;8.00;99.90;;;;;;5110372;28;20039;-67
2021/12/18 07:38:22;;;;;;;17.02;4.30;;;8.10;99.90;;;;;;5107945;28;20085;-66
2021/12/18 07:40:47;;;;;;;10.55;3.33;;;8.10;99.90;;;;;;5101666;28;20036;-66
2021/12/18 07:43:13;;;;;;;14.57;4.70;;;8.10;99.90;;;;;;5107275;28;20108;-66
2021/12/18 07:45:39;;;;;;;13.60;4.00;;;8.10;99.90;;;;;;5098891;27;20042;-66
2021/12/18 07:48:05;;;;;;;12.00;3.70;;;8.10;99.90;;;;;;5108163;28;20134;-66
2021/12/18 07:50:32;;;;;;;15.63;4.75;;;8.10;99.90;;;;;;5110838;28;20118;-65
2021/12/18 07:52:58;;;;;;;14.93;4.22;;;8.20;99.90;;;;;;5111480;28;20420;-66
2021/12/18 07:55:24;;;;;;;12.15;3.25;;;8.10;99.90;;;;;;5097996;27;20043;-66
2021/12/18 07:57:54;;;;;;;16.08;4.07;;;8.40;99.90;;;;;;5090231;28;20069;-66
2021/12/18 08:00:20;;;;;;;17.90;4.25;;;8.20;99.90;;;;;;5114036;27;20077;-66
2021/12/18 08:02:46;;;;;;;14.75;3.75;;;8.10;99.90;;;;;;5076502;28;20036;-67
2021/12/18 08:05:12;;;;;;;12.48;4.45;;;8.10;99.90;;;;;;5092443;28;20062;-67
2021/12/18 08:07:38;;;;;;;16.73;4.63;;;8.20;99.90;;;;;;5075064;28;20035;-66
2021/12/18 08:10:04;;;;;;;21.30;4.13;;;8.10;99.90;;;;;;5094668;27;20047;-67
2021/12/18 08:12:29;;;;;;;15.45;4.30;;;8.20;99.90;;;;;;5101312;28;20122;-68
2021/12/18 08:14:56;;;;;;;18.25;5.13;;;8.20;99.90;;;;;;5106397;28;20135;-67
2021/12/18 08:17:23;;;;;;;11.38;3.92;;;8.10;99.90;;;;;;5109215;28;22023;-67
2021/12/18 08:19:48;;;;;;;11.52;3.03;;;8.20;99.90;;;;;;5065146;28;20048;-65
2021/12/18 08:22:14;;;;;;;11.18;3.30;;;8.20;99.90;;;;;;5073392;28;20501;-65
2021/12/18 08:24:39;;;;;;;14.32;2.95;;;8.30;99.90;;;;;;5108159;28;20039;-65
2021/12/18 08:27:05;;;;;;;13.18;2.60;;;8.20;99.90;;;;;;5111949;28;20039;-66
2021/12/18 08:29:31;;;;;;;9.57;2.38;;;8.20;99.90;;;;;;5102136;28;20046;-67
2021/12/18 08:31:56;;;;;;;12.32;3.15;;;8.20;99.90;;;;;;5099309;28;20040;-68
2021/12/18 08:34:23;;;;;;;10.20;2.78;;;8.20;99.90;;;;;;5110494;28;20419;-64
2021/12/18 08:36:49;;;;;;;9.13;2.33;;;8.20;99.90;;;;;;5092364;28;20043;-67
2021/12/18 08:39:15;;;;;;;9.20;2.67;;;8.20;99.90;;;;;;5104741;28;20123;-67
2021/12/18 08:41:42;;;;;;;6.50;2.20;;;8.20;99.90;;;;;;5095054;27;20040;-67
2021/12/18 08:44:08;;;;;;;10.38;2.20;;;8.20;99.90;;;;;;5091325;28;20438;-66
2021/12/18 08:46:35;;;;;;;13.00;2.33;;;8.20;99.90;;;;;;5100799;28;20043;-66
2021/12/18 08:49:00;;;;;;;4.70;2.25;;;8.40;99.90;;;;;;5110531;28;20508;-66
2021/12/18 08:51:26;;;;;;;10.93;2.70;;;8.30;99.90;;;;;;5111738;28;20032;-66
2021/12/18 08:53:52;;;;;;;10.70;3.20;;;8.30;99.90;;;;;;5106927;28;20044;-67
2021/12/18 08:56:17;;;;;;;9.20;2.65;;;8.20;99.90;;;;;;5089247;28;20404;-67
2021/12/18 08:58:43;;;;;;;8.30;2.70;;;8.30;99.90;;;;;;5101143;28;20063;-66
2021/12/18 09:01:09;;;;;;;12.45;3.72;;;8.30;99.90;;;;;;5101986;28;20383;-67
2021/12/18 09:03:34;;;;;;;11.30;2.78;;;8.30;99.90;;;;;;5090384;28;20038;-67
2021/12/18 09:06:00;;;;;;;9.65;2.63;;;8.30;99.90;;;;;;5077615;28;20043;-66
2021/12/18 09:08:26;;;;;;;9.98;3.05;;;8.40;99.90;;;;;;5106539;28;20089;-66
2021/12/18 09:10:52;;;;;;;15.80;3.45;;;8.30;99.90;;;;;;5103844;28;20130;-68
2021/12/18 09:13:18;;;;;;;13.65;2.63;;;8.30;99.90;;;;;;5108472;28;20127;-66
2021/12/18 09:15:43;;;;;;;14.15;3.53;;;8.40;99.90;;;;;;5102104;28;20450;-66
2021/12/18 09:18:09;;;;;;;18.42;3.72;;;8.40;99.90;;;;;;5098922;28;20118;-66
2021/12/18 09:20:35;;;;;;;12.30;3.65;;;8.40;99.90;;;;;;5104388;28;20096;-65
2021/12/18 09:23:01;;;;;;;9.20;3.22;;;8.40;99.90;;;;;;5081265;28;20512;-66
2021/12/18 09:25:28;;;;;;;11.55;3.25;;;8.40;99.90;;;;;;5096081;28;20482;-65
2021/12/18 09:27:56;;;;;;;18.27;3.95;;;8.40;99.90;;;;;;5086402;28;20052;-67
2021/12/18 09:30:22;;;;;;;;;;;8.40;99.90;;;;;;5062381;28;20052;-66
2021/12/18 09:32:48;;;;;;;17.85;4.07;;;8.40;99.90;;;;;;5082938;28;19927;-67
2021/12/18 09:35:14;;;;;;;18.67;4.80;;;8.40;99.90;;;;;;5080730;28;20628;-67
2021/12/18 09:37:40;;;;;;;12.70;4.15;;;8.40;99.90;;;;;;5077956;28;20059;-67
2021/12/18 09:40:08;;;;;;;13.02;4.18;;;8.40;99.90;;;;;;5090782;28;20032;-65
2021/12/18 09:42:33;;;;;;;15.48;4.95;;;8.40;99.90;;;;;;5105170;28;20039;-66
2021/12/18 09:44:59;;;;;;;13.18;4.70;;;8.40;99.90;;;;;;5105626;28;20059;-66
2021/12/18 09:47:25;;;;;;;18.52;5.75;;;8.40;99.90;;;;;;5102811;28;20035;-66
2021/12/18 09:49:50;;;;;;;16.23;5.30;;;8.40;99.90;;;;;;5108402;28;20040;-66
2021/12/18 09:52:16;;;;;;;13.15;5.60;;;8.40;99.90;;;;;;5090950;28;20076;-66
2021/12/18 09:54:42;;;;;;;20.73;6.10;;;8.40;99.90;;;;;;5101851;28;20576;-66
2021/12/18 09:57:08;;;;;;;20.17;5.80;;;8.50;99.90;;;;;;5109773;28;20035;-67
2021/12/18 09:59:36;;;;;;;15.30;5.30;;;8.50;99.90;;;;;;5106660;28;20381;-67
2021/12/18 10:02:02;;;;;;;14.32;4.72;;;8.40;99.90;;;;;;5108265;27;20050;-67
2021/12/18 10:04:32;;;;;;;11.48;4.85;;;8.50;99.90;;;;;;5113269;28;20048;-65
2021/12/18 10:07:00;;;;;;;9.00;4.25;;;8.50;99.90;;;;;;5112578;27;20035;-67
2021/12/18 10:09:25;;;;;;;;;;;8.60;99.90;;;;;;5112077;28;20493;-66
2021/12/18 10:11:54;;;;;;;19.30;4.57;;;8.50;99.90;;;;;;5091320;28;19931;-65
2021/12/18 10:14:35;;;;;;;16.50;4.88;;;8.60;99.90;;;;;;5099565;27;20494;-66
2021/12/18 10:17:02;;;;;;;18.98;5.70;;;8.60;99.90;;;;;;5094223;28;20044;-69
2021/12/18 10:19:37;;;;;;;12.77;4.63;;;8.60;99.90;;;;;;5112898;28;20051;-67
2021/12/18 10:22:08;;;;;;;13.88;4.60;;;8.50;99.90;;;;;;5109889;28;20064;-67
2021/12/18 10:24:46;;;;;;;9.73;4.03;;;8.60;99.90;;;;;;5114745;28;20493;-66
2021/12/18 10:27:21;;;;;;;14.77;3.97;;;8.80;99.90;;;;;;5094340;28;20052;-65
2021/12/18 10:29:48;;;;;;;12.80;4.53;;;8.70;99.90;;;;;;5101060;28;20036;-67
2021/12/18 10:32:17;;;;;;;19.95;4.97;;;8.70;99.90;;;;;;5093149;28;20055;-66
2021/12/18 10:34:48;;;;;;;;;;;8.70;99.90;;;;;;5094878;27;20557;-66
2021/12/18 10:37:17;;;;;;;14.77;4.55;;;8.70;99.90;;;;;;5103672;28;19927;-65
2021/12/18 10:39:57;;;;;;;17.80;5.38;;;8.70;99.90;;;;;;5105966;28;20044;-65
2021/12/18 10:42:58;;;;;;;11.00;3.88;;;8.60;99.90;;;;;;5104070;28;20071;-66
2021/12/18 10:45:27;;;;;;;17.35;4.40;;;8.60;99.90;;;;;;5010632;28;20052;-66
2021/12/18 10:48:17;;;;;;;10.70;4.22;;;8.60;99.90;;;;;;5093014;28;20117;-67
2021/12/18 10:50:51;;;;;;;12.23;3.78;;;8.70;99.90;;;;;;5085362;28;20414;-67
2021/12/18 10:53:23;;;;;;;22.80;4.07;;;8.70;99.90;;;;;;5112764;27;20043;-66
2021/12/18 10:55:53;;;;;;;13.43;4.05;;;8.70;99.90;;;;;;5109123;28;20044;-67
2021/12/18 10:58:33;;;;;;;11.75;4.00;;;8.70;99.90;;;;;;5089803;28;20077;-66
2021/12/18 11:01:02;;;;;;;7.60;3.67;;;8.70;99.90;;;;;;5096356;28;20047;-66
2021/12/18 11:03:33;;;;;;;13.27;3.47;;;8.70;99.90;;;;;;5093497;28;20040;-66
2021/12/18 11:06:04;;;;;;;10.75;3.92;;;8.80;99.90;;;;;;5104927;28;20512;-66
2021/12/18 11:08:31;;;;;;;14.20;3.90;;;8.80;99.90;;;;;;5093228;27;20135;-66
2021/12/18 11:13:53;;;;;;;19.50;3.80;;;8.80;99.90;;;;;;5081602;28;20059;-68
2021/12/18 11:16:19;;;;;;;13.63;3.60;;;8.80;99.90;;;;;;5106081;28;20492;-65
2021/12/18 11:18:46;;;;;;;12.05;3.40;;;8.90;99.90;;;;;;5108567;28;20347;-66
2021/12/18 11:21:12;;;;;;;8.05;3.25;;;8.80;99.90;;;;;;5084423;28;20102;-66
2021/12/18 11:23:50;;;;;;;10.10;3.50;;;8.90;99.90;;;;;;5105711;28;20050;-66
2021/12/18 11:26:17;;;;;;;8.77;3.05;;;8.90;99.90;;;;;;5111076;28;20059;-65
2021/12/18 11:28:48;;;;;;;12.70;3.42;;;8.90;99.90;;;;;;5109850;27;20114;-66
2021/12/18 11:31:14;;;;;;;9.85;3.15;;;8.90;99.90;;;;;;5110687;28;20040;-66
2021/12/18 11:33:39;;;;;;;11.57;3.10;;;8.80;99.90;;;;;;5108627;28;20066;-66
2021/12/18 11:36:08;;;;;;;11.73;3.45;;;8.90;99.90;;;;;;5103991;28;20075;-65
2021/12/18 11:38:36;;;;;;;11.50;2.85;;;8.90;99.90;;;;;;5087096;28;20523;-66
2021/12/18 11:41:02;;;;;;;10.02;2.90;;;8.90;99.90;;;;;;5103397;28;20136;-66
2021/12/18 11:43:35;;;;;;;10.57;2.83;;;8.90;99.90;;;;;;5083180;28;20039;-66
2021/12/18 11:46:03;;;;;;;12.43;3.05;;;8.90;99.90;;;;;;5079311;28;20141;-67
2021/12/18 11:48:55;;;;;;;11.45;3.13;;;9.00;99.90;;;;;;5099117;28;20408;-66
2021/12/18 11:51:21;;;;;;;6.80;3.00;;;8.90;99.90;;;;;;5101257;28;20031;-67
2021/12/18 11:53:47;;;;;;;12.52;3.08;;;8.90;99.90;;;;;;5094853;28;20043;-66
2021/12/18 11:56:14;;;;;;;15.98;3.50;;;8.90;99.90;;;;;;5099820;27;20044;-67
2021/12/18 11:58:45;;;;;;;12.85;3.55;;;8.90;99.90;;;;;;5129117;27;20492;-66
2021/12/18 12:01:21;;;;;;;13.57;3.22;;;8.90;99.90;;;;;;5105423;28;20075;-65
2021/12/18 12:03:52;;;;;;;8.18;3.13;;;9.00;99.90;;;;;;5104829;28;20078;-66
2021/12/18 12:06:38;;;;;;;13.02;3.83;;;9.00;99.90;;;;;;5102248;28;20046;-65
2021/12/18 12:09:23;;;;;;;13.70;3.35;;;9.00;99.90;;;;;;5095455;28;20105;-66
2021/12/18 12:12:07;;;;;;;11.13;3.50;;;9.10;99.90;;;;;;5100936;28;20067;-66
2021/12/18 12:14:33;;;;;;;14.18;3.72;;;9.00;99.90;;;;;;5096298;28;20067;-66
2021/12/18 12:17:01;;;;;;;12.93;3.55;;;9.00;99.90;;;;;;5098203;28;20492;-65
2021/12/18 12:19:36;;;;;;;10.93;3.38;;;9.00;99.90;;;;;;5100675;28;20036;-66
2021/12/18 12:22:04;;;;;;;13.43;3.60;;;9.00;99.90;;;;;;5103883;28;20050;-65
2021/12/18 12:24:50;;;;;;;18.45;4.85;;;9.00;99.90;;;;;;5098002;28;20484;-67
2021/12/18 12:27:35;;;;;;;14.45;3.63;;;9.00;99.90;;;;;;5099686;27;20032;-65
2021/12/18 12:30:06;;;;;;;18.73;4.00;;;9.00;99.90;;;;;;5093276;27;20063;-67
2021/12/18 12:32:31;;;;;;;13.00;3.60;;;9.10;99.90;;;;;;5108266;28;20097;-66
2021/12/18 12:35:15;;;;;;;15.77;3.88;;;9.00;99.90;;;;;;5106450;28;20517;-66
2021/12/18 12:37:44;;;;;;;13.00;3.58;;;9.00;99.90;;;;;;5108086;28;20552;-65
2021/12/18 12:40:14;;;;;;;14.25;3.50;;;9.10;99.90;;;;;;5101132;28;20304;-65
2021/12/18 12:43:00;;;;;;;15.25;3.58;;;9.00;99.90;;;;;;5105244;28;20062;-66
2021/12/18 12:45:39;;;;;;;13.85;4.20;;;9.00;99.90;;;;;;5103094;27;20572;-67
2021/12/18 12:48:05;;;;;;;12.73;3.25;;;9.00;99.90;;;;;;5117812;27;20055;-66
2021/12/18 12:50:31;;;;;;;19.05;3.90;;;9.00;99.90;;;;;;5099963;27;20040;-64
2021/12/18 12:53:10;;;;;;;19.80;5.13;;;8.90;99.90;;;;;;5101989;28;20035;-66
2021/12/18 12:55:50;;;;;;;14.15;4.15;;;9.00;99.90;;;;;;5107894;28;20058;-65
2021/12/18 12:58:20;;;;;;;19.95;4.40;;;9.00;99.90;;;;;;5108098;28;20047;-65
2021/12/18 13:01:05;;;;;;;11.90;3.60;;;8.90;99.90;;;;;;5102088;28;20366;-67
2021/12/18 13:03:51;;;;;;;15.40;4.03;;;9.00;99.90;;;;;;5102999;28;20050;-68
2021/12/18 13:06:22;;;;;;;12.60;3.42;;;8.90;99.90;;;;;;5074871;28;20416;-67
2021/12/18 13:08:48;;;;;;;14.65;3.33;;;8.90;99.90;;;;;;5097928;28;20047;-67
2021/12/18 13:11:21;;;;;;;12.20;3.92;;;8.70;99.90;;;;;;5090247;28;20084;-65
2021/12/18 13:13:48;;;;;;;13.43;3.67;;;8.90;99.90;;;;;;5103120;28;20101;-66
2021/12/18 13:16:16;;;;;;;12.73;3.72;;;9.10;99.90;;;;;;5068667;28;20397;-66
2021/12/18 13:18:56;;;;;;;;;;;8.90;99.90;;;;;;5095399;28;20040;-67
2021/12/18 13:21:25;;;;;;;11.82;2.85;;;8.90;99.90;;;;;;5097244;28;20003;-66
2021/12/18 13:24:04;;;;;;;12.82;3.38;;;8.80;99.90;;;;;;5093539;28;20035;-67
2021/12/18 13:26:34;;;;;;;10.07;3.30;;;8.90;99.90;;;;;;5103257;28;20039;-66
2021/12/18 13:29:06;;;;;;;10.68;3.28;;;8.90;99.90;;;;;;5109599;28;20059;-67
2021/12/18 13:31:34;;;;;;;9.63;3.35;;;8.80;99.90;;;;;;5106465;28;20041;-66
2021/12/18 13:34:06;;;;;;;11.98;3.70;;;8.80;99.90;;;;;;5115078;28;20124;-66
2021/12/18 13:36:37;;;;;;;11.10;2.85;;;8.80;99.90;;;;;;5105528;28;20500;-66
2021/12/18 13:39:07;;;;;;;10.10;3.20;;;8.80;99.90;;;;;;5109138;28;20078;-65
2021/12/18 13:41:33;;;;;;;12.85;3.70;;;8.90;99.90;;;;;;5102366;28;20040;-67
2021/12/18 13:43:58;;;;;;;12.25;3.33;;;8.80;99.90;;;;;;5083998;28;20048;-65
2021/12/18 13:46:29;;;;;;;13.52;3.75;;;8.80;99.90;;;;;;5090545;28;20454;-65